createdAt,value
2019-02-21T00:00:44.463Z,20.88
2019-02-21T00:04:48.326Z,20.32
2019-02-21T00:08:52.872Z,22.60
2019-02-21T00:12:56.333Z,22.82
2019-02-21T00:16:59.744Z,22.77
2019-02-21T00:21:03.297Z,22.45
2019-02-21T00:25:06.762Z,22.50
2019-02-21T00:29:10.416Z,22.07
2019-02-21T00:33:14.032Z,22.55
2019-02-21T00:37:17.519Z,22.32
2019-02-21T00:41:21.057Z,21.85
2019-02-21T00:45:26.416Z,23.22
2019-02-21T00:49:29.923Z,22.15
2019-02-21T00:53:34.485Z,22.82
2019-02-21T00:57:37.977Z,23.07
2019-02-21T01:01:41.701Z,23.25
2019-02-21T01:05:45.574Z,23.25
2019-02-21T01:09:49.218Z,23.25
2019-02-21T01:13:52.833Z,23.47
2019-02-21T01:17:56.407Z,24.57
2019-02-21T01:22:00.164Z,24.80
2019-02-21T01:26:03.775Z,24.30
2019-02-21T01:30:08.234Z,25.55
2019-02-21T01:34:11.819Z,26.10
2019-02-21T01:38:15.542Z,25.10
2019-02-21T01:42:19.150Z,25.52
2019-02-21T01:46:22.733Z,25.60
2019-02-21T01:50:26.241Z,25.10
2019-02-21T01:54:29.745Z,25.15
2019-02-21T01:58:33.300Z,22.98
2019-02-21T02:02:36.913Z,24.80
2019-02-21T02:06:41.574Z,26.65
2019-02-21T02:10:45.166Z,25.52
2019-02-21T02:14:48.950Z,25.70
2019-02-21T02:18:52.562Z,24.43
2019-02-21T02:22:56.111Z,24.05
2019-02-21T02:26:59.519Z,26.87
2019-02-21T02:31:03.152Z,25.72
2019-02-21T02:35:06.950Z,24.32
2019-02-21T02:39:10.475Z,22.48
2019-02-21T02:43:14.183Z,24.35
2019-02-21T02:47:18.859Z,24.57
2019-02-21T02:51:22.534Z,25.72
2019-02-21T02:55:26.002Z,25.10
2019-02-21T02:59:40.399Z,26.40
2019-02-21T03:03:34.706Z,26.73
2019-02-21T03:07:38.220Z,24.70
2019-02-21T03:11:41.727Z,25.97
2019-02-21T03:15:45.202Z,26.08
2019-02-21T03:19:48.975Z,25.75
2019-02-21T03:23:52.568Z,25.62
2019-02-21T03:27:57.287Z,26.30
2019-02-21T03:32:00.935Z,25.55
2019-02-21T03:36:04.439Z,27.40
2019-02-21T03:40:09.622Z,26.87
2019-02-21T03:44:13.096Z,26.07
2019-02-21T03:48:16.568Z,27.93
2019-02-21T03:52:20.010Z,25.12
2019-02-21T03:56:23.527Z,25.92
2019-02-21T04:00:28.899Z,28.87
2019-02-21T04:04:32.036Z,26.35
2019-02-21T04:08:35.559Z,25.77
2019-02-21T04:12:39.175Z,26.02
2019-02-21T04:16:42.829Z,27.67
2019-02-21T04:20:46.482Z,25.75
2019-02-21T04:24:50.012Z,27.35
2019-02-21T04:28:53.668Z,24.63
2019-02-21T04:32:57.073Z,25.77
2019-02-21T04:37:01.012Z,26.37
2019-02-21T04:41:04.573Z,25.40
2019-02-21T04:45:08.126Z,25.43
2019-02-21T04:49:13.354Z,25.27
2019-02-21T04:53:16.889Z,26.52
2019-02-21T04:57:20.403Z,27.35
2019-02-21T05:01:23.970Z,27.30
2019-02-21T05:05:27.492Z,25.77
2019-02-21T05:09:32.863Z,25.00
2019-02-21T05:13:37.792Z,25.55
2019-02-21T05:17:41.431Z,25.90
2019-02-21T05:21:44.812Z,25.00
2019-02-21T05:25:50.119Z,25.80
2019-02-21T05:29:53.504Z,26.97
2019-02-21T05:34:07.562Z,28.05
2019-02-21T05:38:26.064Z,26.75
2019-02-21T05:42:42.854Z,26.97
2019-02-21T05:47:04.549Z,27.98
2019-02-21T05:51:12.564Z,27.80
2019-02-21T05:55:17.857Z,26.95
2019-02-21T05:59:25.873Z,28.95
2019-02-21T06:03:31.101Z,26.97
2019-02-21T06:07:51.332Z,29.85
2019-02-21T06:11:56.582Z,27.58
2019-02-21T06:16:02.797Z,29.37
2019-02-21T06:20:08.480Z,29.45
2019-02-21T06:24:13.873Z,27.90
2019-02-21T06:28:21.850Z,30.17
2019-02-21T06:32:25.353Z,29.12
2019-02-21T06:36:28.915Z,31.12
2019-02-21T06:40:32.384Z,32.93
2019-02-21T06:44:37.876Z,32.05
2019-02-21T06:48:41.085Z,32.03
2019-02-21T06:52:44.495Z,30.17
2019-02-21T06:56:47.964Z,31.62
2019-02-21T07:00:51.682Z,30.82
2019-02-21T07:04:56.671Z,32.25
2019-02-21T07:09:00.358Z,31.90
2019-02-21T07:13:03.894Z,32.53
2019-02-21T07:17:08.522Z,32.60
2019-02-21T07:21:13.281Z,31.47
2019-02-21T07:25:21.549Z,34.35
2019-02-21T07:29:25.106Z,32.38
2019-02-21T07:33:29.088Z,31.48
2019-02-21T07:37:32.643Z,31.40
2019-02-21T07:41:36.154Z,31.85
2019-02-21T07:45:40.675Z,29.25
2019-02-21T07:49:44.207Z,28.12
2019-02-21T07:53:47.764Z,30.62
2019-02-21T07:57:51.274Z,30.30
2019-02-21T08:01:55.155Z,29.98
2019-02-21T08:05:58.970Z,30.80
2019-02-21T08:10:02.682Z,28.77
2019-02-21T08:14:06.193Z,28.65
2019-02-21T08:18:09.806Z,30.00
2019-02-21T08:22:13.318Z,28.62
2019-02-21T08:26:19.994Z,30.27
2019-02-21T08:30:22.187Z,28.15
2019-02-21T08:34:27.437Z,28.05
2019-02-21T08:38:30.841Z,26.90
2019-02-21T08:42:34.359Z,25.90
2019-02-21T08:46:37.774Z,27.70
2019-02-21T08:50:41.378Z,26.02
2019-02-21T08:54:44.759Z,25.32
2019-02-21T08:58:49.136Z,24.63
2019-02-21T09:02:53.152Z,22.35
2019-02-21T09:06:57.415Z,21.65
2019-02-21T09:11:03.845Z,22.27
2019-02-21T09:15:09.225Z,22.30
2019-02-21T09:19:12.719Z,20.02
2019-02-21T09:23:16.193Z,20.00
2019-02-21T09:27:20.192Z,19.90
2019-02-21T09:31:23.625Z,21.07
2019-02-21T09:35:27.172Z,22.52
2019-02-21T09:39:30.993Z,22.22
2019-02-21T09:43:34.388Z,21.68
2019-02-21T09:47:38.222Z,20.15
2019-02-21T09:51:42.045Z,22.85
2019-02-21T09:55:45.717Z,20.85
2019-02-21T09:59:50.473Z,21.15
2019-02-21T10:03:54.008Z,21.40
2019-02-21T10:07:57.521Z,21.30
2019-02-21T10:12:00.945Z,19.60
2019-02-21T10:16:04.924Z,19.00
2019-02-21T10:20:11.499Z,18.52
2019-02-21T10:24:16.183Z,18.77
2019-02-21T10:28:19.686Z,18.52
2019-02-21T10:32:23.195Z,16.70
2019-02-21T10:36:26.668Z,17.20
2019-02-21T10:40:30.109Z,16.95
2019-02-21T10:44:33.628Z,18.65
2019-02-21T10:48:37.102Z,13.78
2019-02-21T10:52:41.638Z,15.58
2019-02-21T10:56:45.287Z,15.58
2019-02-21T11:00:48.769Z,14.98
2019-02-21T11:04:55.092Z,15.80
2019-02-21T11:08:57.462Z,15.48
2019-02-21T11:13:00.896Z,15.70
2019-02-21T11:17:04.584Z,15.23
2019-02-21T11:21:08.101Z,14.57
2019-02-21T11:25:12.183Z,15.03
2019-02-21T11:29:15.693Z,15.55
2019-02-21T11:33:19.208Z,15.25
2019-02-21T11:37:22.755Z,14.63
2019-02-21T11:41:26.227Z,15.15
2019-02-21T11:45:29.676Z,15.20
2019-02-21T11:49:33.188Z,15.38
2019-02-21T11:53:38.168Z,16.40
2019-02-21T11:57:41.849Z,16.73
2019-02-21T12:01:45.361Z,17.30
2019-02-21T12:05:48.835Z,16.37
2019-02-21T12:09:52.384Z,16.10
2019-02-21T12:13:55.962Z,15.60
2019-02-21T12:17:59.469Z,15.10
2019-02-21T12:22:03.128Z,13.70
2019-02-21T12:26:06.637Z,13.53
2019-02-21T12:30:12.579Z,14.70
2019-02-21T12:34:16.113Z,14.53
2019-02-21T12:38:19.584Z,14.78
2019-02-21T12:42:23.238Z,15.23
2019-02-21T12:46:28.358Z,16.67
2019-02-21T12:50:31.967Z,16.62
2019-02-21T12:54:38.154Z,18.10
2019-02-21T12:58:41.791Z,17.75
2019-02-21T13:02:45.331Z,18.90
2019-02-21T13:06:48.792Z,18.52
2019-02-21T13:10:52.329Z,18.20
2019-02-21T13:14:55.801Z,19.67
2019-02-21T13:18:59.307Z,19.27
2019-02-21T13:23:02.821Z,18.35
2019-02-21T13:27:06.348Z,18.23
2019-02-21T13:31:09.935Z,20.23
2019-02-21T13:35:14.638Z,20.52
2019-02-21T13:39:18.094Z,21.20
2019-02-21T13:43:21.656Z,20.60
2019-02-21T13:47:25.160Z,20.32
2019-02-21T13:51:28.639Z,20.35
2019-02-21T13:55:32.192Z,22.20
2019-02-21T13:59:36.717Z,19.87
2019-02-21T14:03:41.264Z,21.62
2019-02-21T14:07:44.763Z,22.00
2019-02-21T14:11:48.339Z,22.00
2019-02-21T14:15:51.891Z,21.60
2019-02-21T14:19:55.401Z,21.80
2019-02-21T14:23:58.813Z,23.32
2019-02-21T14:28:03.989Z,23.10
2019-02-21T14:32:07.534Z,24.98
2019-02-21T14:36:16.012Z,23.90
2019-02-21T14:40:17.231Z,25.27
2019-02-21T14:44:20.732Z,24.90
2019-02-21T14:48:26.714Z,27.05
2019-02-21T14:52:31.114Z,24.80
2019-02-21T14:56:34.619Z,26.93
2019-02-21T15:00:38.160Z,28.32
2019-02-21T15:04:41.706Z,28.15
2019-02-21T15:08:45.178Z,29.45
2019-02-21T15:12:48.622Z,31.42
2019-02-21T15:16:52.136Z,29.25
2019-02-21T15:20:55.521Z,29.30
2019-02-21T15:24:59.057Z,31.23
2019-02-21T15:29:02.494Z,31.12
2019-02-21T15:33:06.050Z,31.23
2019-02-21T15:37:09.594Z,31.07
2019-02-21T15:41:13.044Z,30.97
2019-02-21T15:45:23.581Z,32.35
2019-02-21T15:49:24.705Z,32.17
2019-02-21T15:53:28.449Z,32.60
2019-02-21T15:57:31.869Z,33.98
2019-02-21T16:01:46.996Z,34.55
2019-02-21T16:05:40.521Z,34.23
2019-02-21T16:09:43.992Z,33.57
2019-02-21T16:13:47.795Z,34.83
2019-02-21T16:17:51.634Z,36.77
2019-02-21T16:21:55.181Z,36.03
2019-02-21T16:26:00.405Z,36.65
2019-02-21T16:30:04.113Z,35.78
2019-02-21T16:34:09.283Z,33.88
2019-02-21T16:38:12.772Z,35.05
2019-02-21T16:42:17.386Z,39.05
2019-02-21T16:46:20.821Z,36.05
2019-02-21T16:50:29.609Z,35.95
2019-02-21T16:54:29.622Z,35.38
2019-02-21T16:58:34.869Z,38.80
2019-02-21T17:02:38.586Z,36.93
2019-02-21T17:06:42.102Z,38.25
2019-02-21T17:10:45.613Z,39.75
2019-02-21T17:14:50.113Z,42.90
2019-02-21T17:18:55.922Z,43.08
2019-02-21T17:22:58.837Z,43.42
2019-02-21T17:27:02.264Z,41.68
2019-02-21T17:31:05.730Z,40.35
2019-02-21T17:35:09.198Z,40.85
2019-02-21T17:39:12.854Z,41.00
2019-02-21T17:43:16.330Z,41.50
2019-02-21T17:47:19.878Z,42.88
2019-02-21T17:51:24.823Z,41.63
2019-02-21T17:55:28.236Z,42.73
2019-02-21T17:59:31.707Z,45.00
2019-02-21T18:03:35.317Z,43.73
2019-02-21T18:07:38.827Z,40.67
2019-02-21T18:11:42.342Z,42.95
2019-02-21T18:15:45.896Z,42.27
2019-02-21T18:19:49.370Z,41.45
2019-02-21T18:23:52.812Z,40.43
2019-02-21T18:27:56.288Z,40.75
2019-02-21T18:32:00.789Z,43.48
2019-02-21T18:36:04.370Z,40.95
2019-02-21T18:40:20.852Z,40.78
2019-02-21T18:44:24.707Z,39.03
2019-02-21T18:48:28.183Z,41.60
2019-02-21T18:52:31.691Z,38.30
2019-02-21T18:56:35.242Z,38.40
2019-02-21T19:00:38.755Z,37.58
2019-02-21T19:04:42.263Z,37.63
2019-02-21T19:08:45.733Z,38.40
2019-02-21T19:12:50.311Z,37.13
2019-02-21T19:16:53.963Z,41.00
2019-02-21T19:20:57.537Z,36.73
2019-02-21T19:25:01.011Z,36.90
2019-02-21T19:29:04.559Z,38.33
2019-02-21T19:33:08.071Z,44.40
2019-02-21T19:37:11.561Z,37.65
2019-02-21T19:41:15.057Z,38.20
2019-02-21T19:45:18.675Z,35.68
2019-02-21T19:49:22.319Z,37.78
2019-02-21T19:53:26.040Z,37.45
2019-02-21T19:57:29.654Z,38.58
2019-02-21T20:01:33.163Z,37.48
2019-02-21T20:05:36.777Z,36.93
2019-02-21T20:09:40.262Z,36.20
2019-02-21T20:13:43.804Z,35.07
2019-02-21T20:17:47.312Z,37.15
2019-02-21T20:21:50.823Z,35.93
2019-02-21T20:25:54.334Z,35.07
2019-02-21T20:29:57.845Z,32.83
2019-02-21T20:34:01.461Z,30.35
2019-02-21T20:38:04.980Z,30.55
2019-02-21T20:42:08.482Z,29.18
2019-02-21T20:46:13.889Z,32.73
2019-02-21T20:50:17.145Z,32.03
2019-02-21T20:54:20.761Z,26.40
2019-02-21T20:58:24.489Z,28.75
2019-02-21T21:02:28.395Z,25.02
2019-02-21T21:06:32.918Z,21.75
2019-02-21T21:10:36.441Z,22.02
2019-02-21T21:14:40.054Z,22.02
2019-02-21T21:18:43.595Z,22.00
2019-02-21T21:22:47.146Z,20.57
2019-02-21T21:26:50.752Z,19.70
2019-02-21T21:30:56.130Z,20.02
2019-02-21T21:34:59.557Z,19.42
2019-02-21T21:39:03.078Z,19.87
2019-02-21T21:43:06.559Z,19.07
2019-02-21T21:47:10.195Z,30.17
2019-02-21T21:51:13.707Z,20.12
2019-02-21T21:55:17.318Z,21.42
2019-02-21T21:59:20.835Z,21.42
2019-02-21T22:03:24.753Z,21.95
2019-02-21T22:07:28.267Z,19.10
2019-02-21T22:11:31.647Z,20.60
2019-02-21T22:15:35.185Z,20.15
2019-02-21T22:19:38.658Z,19.25
2019-02-21T22:23:42.262Z,21.23
2019-02-21T22:27:46.755Z,19.42
2019-02-21T22:31:50.211Z,19.45
2019-02-21T22:35:53.663Z,17.98
2019-02-21T22:39:57.133Z,19.45
2019-02-21T22:44:00.749Z,19.32
2019-02-21T22:48:04.303Z,21.30
2019-02-21T22:52:07.676Z,21.93
2019-02-21T22:56:11.220Z,20.97
2019-02-21T23:00:31.526Z,23.92
2019-02-21T23:04:38.419Z,24.10
2019-02-21T23:08:48.071Z,23.73
2019-02-21T23:12:51.507Z,24.00
2019-02-21T23:16:54.992Z,25.30
2019-02-21T23:20:58.377Z,26.12
2019-02-21T23:25:01.914Z,26.80
2019-02-21T23:29:05.381Z,27.45
2019-02-21T23:33:08.938Z,25.43
2019-02-21T23:37:12.548Z,24.63
2019-02-21T23:41:17.268Z,25.57
2019-02-21T23:45:20.663Z,24.60
2019-02-21T23:49:25.169Z,25.15
2019-02-21T23:53:28.745Z,25.48
2019-02-21T23:57:32.114Z,23.80
